sensor_id;sensor_type;location;lat;lon;timestamp;P1;durP1;ratioP1;P2;durP2;ratioP2
61638;SDS011;47544;52.484;4.658;2023-02-28T00:00:00;8.10;;;3.38;;
61638;SDS011;47544;52.484;4.658;2023-02-28T00:00:12;8.13;;;3.50;;
61638;SDS011;47544;52.484;4.658;2023-02-28T00:00:23;7.38;;;3.63;;
61638;SDS011;47544;52.484;4.658;2023-02-28T00:00:35;6.75;;;3.47;;
61638;SDS011;47544;52.484;4.658;2023-02-28T00:00:46;8.57;;;3.60;;
61638;SDS011;47544;52.484;4.658;2023-02-28T00:00:57;8.85;;;3.60;;
61638;SDS011;47544;52.484;4.658;2023-02-28T00:01:08;9.45;;;3.80;;
61638;SDS011;47544;52.484;4.658;2023-02-28T00:01:19;8.13;;;3.55;;
61638;SDS011;47544;52.484;4.658;2023-02-28T00:01:31;7.60;;;3.17;;
61638;SDS011;47544;52.484;4.658;2023-02-28T00:01:42;7.82;;;3.17;;
61638;SDS011;47544;52.484;4.658;2023-02-28T00:01:53;8.27;;;3.47;;
61638;SDS011;47544;52.484;4.658;2023-02-28T00:02:04;10.43;;;3.70;;
61638;SDS011;47544;52.484;4.658;2023-02-28T00:02:15;10.50;;;3.55;;
61638;SDS011;47544;52.484;4.658;2023-02-28T00:02:28;10.82;;;3.38;;
61638;SDS011;47544;52.484;4.658;2023-02-28T00:02:39;8.90;;;3.30;;
61638;SDS011;47544;52.484;4.658;2023-02-28T00:02:50;9.00;;;3.45;;
61638;SDS011;47544;52.484;4.658;2023-02-28T00:03:02;7.88;;;3.40;;
61638;SDS011;47544;52.484;4.658;2023-02-28T00:03:13;9.20;;;3.65;;
61638;SDS011;47544;52.484;4.658;2023-02-28T00:03:24;10.13;;;3.95;;
61638;SDS011;47544;52.484;4.658;2023-02-28T00:03:35;10.38;;;4.00;;
61638;SDS011;47544;52.484;4.658;2023-02-28T00:03:46;10.82;;;4.03;;
61638;SDS011;47544;52.484;4.658;2023-02-28T00:03:57;9.93;;;3.63;;
61638;SDS011;47544;52.484;4.658;2023-02-28T00:04:08;10.73;;;3.70;;
61638;SDS011;47544;52.484;4.658;2023-02-28T00:04:20;9.77;;;3.67;;
61638;SDS011;47544;52.484;4.658;2023-02-28T00:04:31;9.20;;;3.72;;
61638;SDS011;47544;52.484;4.658;2023-02-28T00:04:42;7.75;;;3.33;;
61638;SDS011;47544;52.484;4.658;2023-02-28T00:04:53;7.93;;;3.30;;
61638;SDS011;47544;52.484;4.658;2023-02-28T00:05:12;9.52;;;3.80;;
61638;SDS011;47544;52.484;4.658;2023-02-28T00:05:24;10.63;;;4.03;;
61638;SDS011;47544;52.484;4.658;2023-02-28T00:05:35;9.40;;;3.90;;
61638;SDS011;47544;52.484;4.658;2023-02-28T00:05:47;9.45;;;3.63;;
61638;SDS011;47544;52.484;4.658;2023-02-28T00:05:58;7.50;;;3.38;;
61638;SDS011;47544;52.484;4.658;2023-02-28T00:06:09;7.78;;;3.05;;
61638;SDS011;47544;52.484;4.658;2023-02-28T00:06:20;6.68;;;2.90;;
61638;SDS011;47544;52.484;4.658;2023-02-28T00:06:31;7.47;;;3.13;;
61638;SDS011;47544;52.484;4.658;2023-02-28T00:06:42;8.75;;;3.58;;
61638;SDS011;47544;52.484;4.658;2023-02-28T00:06:54;10.18;;;3.90;;
61638;SDS011;47544;52.484;4.658;2023-02-28T00:07:05;9.60;;;4.18;;
61638;SDS011;47544;52.484;4.658;2023-02-28T00:07:16;9.50;;;4.18;;
61638;SDS011;47544;52.484;4.658;2023-02-28T00:07:27;9.25;;;4.13;;
61638;SDS011;47544;52.484;4.658;2023-02-28T00:07:40;9.25;;;3.80;;
61638;SDS011;47544;52.484;4.658;2023-02-28T00:07:52;9.20;;;3.88;;
61638;SDS011;47544;52.484;4.658;2023-02-28T00:08:04;9.25;;;3.85;;
61638;SDS011;47544;52.484;4.658;2023-02-28T00:08:15;8.30;;;3.63;;
61638;SDS011;47544;52.484;4.658;2023-02-28T00:08:27;10.25;;;3.90;;
61638;SDS011;47544;52.484;4.658;2023-02-28T00:08:39;9.68;;;3.65;;
61638;SDS011;47544;52.484;4.658;2023-02-28T00:08:50;10.05;;;3.40;;
61638;SDS011;47544;52.484;4.658;2023-02-28T00:09:01;8.90;;;3.22;;
61638;SDS011;47544;52.484;4.658;2023-02-28T00:09:12;9.05;;;3.58;;
61638;SDS011;47544;52.484;4.658;2023-02-28T00:09:23;8.75;;;4.00;;
61638;SDS011;47544;52.484;4.658;2023-02-28T00:09:34;8.27;;;4.10;;
61638;SDS011;47544;52.484;4.658;2023-02-28T00:09:45;8.68;;;4.15;;
61638;SDS011;47544;52.484;4.658;2023-02-28T00:09:56;8.80;;;3.83;;
61638;SDS011;47544;52.484;4.658;2023-02-28T00:10:08;9.25;;;3.58;;
61638;SDS011;47544;52.484;4.658;2023-02-28T00:10:20;8.55;;;3.60;;
61638;SDS011;47544;52.484;4.658;2023-02-28T00:10:33;9.43;;;3.80;;
61638;SDS011;47544;52.484;4.658;2023-02-28T00:10:44;9.25;;;3.72;;
61638;SDS011;47544;52.484;4.658;2023-02-28T00:10:55;9.25;;;3.70;;
61638;SDS011;47544;52.484;4.658;2023-02-28T00:11:07;8.15;;;3.50;;
61638;SDS011;47544;52.484;4.658;2023-02-28T00:11:19;8.00;;;3.30;;
61638;SDS011;47544;52.484;4.658;2023-02-28T00:11:30;8.73;;;3.13;;
61638;SDS011;47544;52.484;4.658;2023-02-28T00:11:41;8.45;;;3.30;;
61638;SDS011;47544;52.484;4.658;2023-02-28T00:11:52;8.43;;;3.25;;
61638;SDS011;47544;52.484;4.658;2023-02-28T00:12:03;7.50;;;3.38;;
61638;SDS011;47544;52.484;4.658;2023-02-28T00:12:20;7.60;;;3.63;;
61638;SDS011;47544;52.484;4.658;2023-02-28T00:12:31;7.40;;;3.47;;
61638;SDS011;47544;52.484;4.658;2023-02-28T00:12:43;7.78;;;3.25;;
61638;SDS011;47544;52.484;4.658;2023-02-28T00:12:55;8.48;;;3.30;;
61638;SDS011;47544;52.484;4.658;2023-02-28T00:13:07;8.32;;;3.10;;
61638;SDS011;47544;52.484;4.658;2023-02-28T00:13:18;8.50;;;2.88;;
61638;SDS011;47544;52.484;4.658;2023-02-28T00:13:29;8.93;;;2.78;;
61638;SDS011;47544;52.484;4.658;2023-02-28T00:13:40;10.05;;;3.05;;
61638;SDS011;47544;52.484;4.658;2023-02-28T00:13:52;9.88;;;3.60;;
61638;SDS011;47544;52.484;4.658;2023-02-28T00:14:05;8.07;;;3.47;;
61638;SDS011;47544;52.484;4.658;2023-02-28T00:14:17;7.38;;;3.20;;
61638;SDS011;47544;52.484;4.658;2023-02-28T00:14:29;7.05;;;3.17;;
61638;SDS011;47544;52.484;4.658;2023-02-28T00:14:40;6.60;;;2.97;;
61638;SDS011;47544;52.484;4.658;2023-02-28T00:14:51;7.50;;;2.92;;
61638;SDS011;47544;52.484;4.658;2023-02-28T00:15:03;8.43;;;3.22;;
61638;SDS011;47544;52.484;4.658;2023-02-28T00:15:16;8.95;;;3.35;;
61638;SDS011;47544;52.484;4.658;2023-02-28T00:15:27;8.32;;;3.25;;
61638;SDS011;47544;52.484;4.658;2023-02-28T00:15:37;6.65;;;2.72;;
61638;SDS011;47544;52.484;4.658;2023-02-28T00:15:57;7.70;;;3.00;;
61638;SDS011;47544;52.484;4.658;2023-02-28T00:16:09;7.22;;;2.80;;
61638;SDS011;47544;52.484;4.658;2023-02-28T00:16:22;6.45;;;2.65;;
61638;SDS011;47544;52.484;4.658;2023-02-28T00:16:33;7.22;;;3.40;;
61638;SDS011;47544;52.484;4.658;2023-02-28T00:16:44;7.40;;;3.53;;
61638;SDS011;47544;52.484;4.658;2023-02-28T00:16:55;8.07;;;3.55;;
61638;SDS011;47544;52.484;4.658;2023-02-28T00:17:06;7.80;;;3.33;;
61638;SDS011;47544;52.484;4.658;2023-02-28T00:17:17;10.30;;;3.30;;
61638;SDS011;47544;52.484;4.658;2023-02-28T00:17:31;10.43;;;3.42;;
61638;SDS011;47544;52.484;4.658;2023-02-28T00:17:42;10.98;;;3.38;;
61638;SDS011;47544;52.484;4.658;2023-02-28T00:17:55;8.70;;;3.15;;
61638;SDS011;47544;52.484;4.658;2023-02-28T00:18:06;7.82;;;3.30;;
61638;SDS011;47544;52.484;4.658;2023-02-28T00:18:16;8.35;;;3.60;;
61638;SDS011;47544;52.484;4.658;2023-02-28T00:18:27;8.80;;;3.75;;
61638;SDS011;47544;52.484;4.658;2023-02-28T00:18:39;9.57;;;3.80;;
61638;SDS011;47544;52.484;4.658;2023-02-28T00:18:50;8.43;;;3.35;;
61638;SDS011;47544;52.484;4.658;2023-02-28T00:19:01;7.57;;;3.22;;
61638;SDS011;47544;52.484;4.658;2023-02-28T00:19:13;6.63;;;3.30;;
61638;SDS011;47544;52.484;4.658;2023-02-28T00:19:24;6.88;;;3.47;;
61638;SDS011;47544;52.484;4.658;2023-02-28T00:19:35;7.70;;;3.50;;
61638;SDS011;47544;52.484;4.658;2023-02-28T00:19:46;8.80;;;3.58;;
61638;SDS011;47544;52.484;4.658;2023-02-28T00:19:58;9.07;;;3.53;;
61638;SDS011;47544;52.484;4.658;2023-02-28T00:20:15;10.20;;;3.83;;
61638;SDS011;47544;52.484;4.658;2023-02-28T00:20:27;9.48;;;3.65;;
61638;SDS011;47544;52.484;4.658;2023-02-28T00:20:38;8.32;;;3.53;;
61638;SDS011;47544;52.484;4.658;2023-02-28T00:20:49;8.60;;;3.67;;
61638;SDS011;47544;52.484;4.658;2023-02-28T00:21:00;8.02;;;3.72;;
61638;SDS011;47544;52.484;4.658;2023-02-28T00:21:11;7.28;;;3.75;;
61638;SDS011;47544;52.484;4.658;2023-02-28T00:21:22;6.72;;;3.22;;
61638;SDS011;47544;52.484;4.658;2023-02-28T00:21:34;6.50;;;2.92;;
61638;SDS011;47544;52.484;4.658;2023-02-28T00:21:46;6.32;;;2.70;;
61638;SDS011;47544;52.484;4.658;2023-02-28T00:21:57;6.53;;;2.47;;
61638;SDS011;47544;52.484;4.658;2023-02-28T00:22:08;6.18;;;2.25;;
61638;SDS011;47544;52.484;4.658;2023-02-28T00:22:19;5.77;;;2.40;;
61638;SDS011;47544;52.484;4.658;2023-02-28T00:22:30;6.47;;;2.55;;
61638;SDS011;47544;52.484;4.658;2023-02-28T00:22:42;6.82;;;2.85;;
61638;SDS011;47544;52.484;4.658;2023-02-28T00:22:53;8.23;;;2.97;;
61638;SDS011;47544;52.484;4.658;2023-02-28T00:23:04;8.13;;;3.00;;
61638;SDS011;47544;52.484;4.658;2023-02-28T00:23:18;8.63;;;3.10;;
61638;SDS011;47544;52.484;4.658;2023-02-28T00:23:29;8.60;;;3.13;;
61638;SDS011;47544;52.484;4.658;2023-02-28T00:23:40;6.80;;;3.15;;
61638;SDS011;47544;52.484;4.658;2023-02-28T00:23:51;8.13;;;3.40;;
61638;SDS011;47544;52.484;4.658;2023-02-28T00:24:02;8.07;;;3.40;;
61638;SDS011;47544;52.484;4.658;2023-02-28T00:24:14;7.93;;;3.28;;
61638;SDS011;47544;52.484;4.658;2023-02-28T00:24:25;6.80;;;2.95;;
61638;SDS011;47544;52.484;4.658;2023-02-28T00:24:36;6.78;;;3.00;;
61638;SDS011;47544;52.484;4.658;2023-02-28T00:24:47;8.07;;;3.27;;
61638;SDS011;47544;52.484;4.658;2023-02-28T00:24:58;8.40;;;3.08;;
61638;SDS011;47544;52.484;4.658;2023-02-28T00:25:10;9.02;;;3.10;;
61638;SDS011;47544;52.484;4.658;2023-02-28T00:25:22;8.27;;;3.28;;
61638;SDS011;47544;52.484;4.658;2023-02-28T00:25:33;10.10;;;3.58;;
61638;SDS011;47544;52.484;4.658;2023-02-28T00:25:44;9.50;;;3.60;;
61638;SDS011;47544;52.484;4.658;2023-02-28T00:25:56;9.27;;;3.35;;
61638;SDS011;47544;52.484;4.658;2023-02-28T00:26:08;8.85;;;3.38;;
61638;SDS011;47544;52.484;4.658;2023-02-28T00:26:19;8.88;;;3.60;;
61638;SDS011;47544;52.484;4.658;2023-02-28T00:26:30;7.88;;;3.50;;
61638;SDS011;47544;52.484;4.658;2023-02-28T00:26:41;7.00;;;3.00;;
61638;SDS011;47544;52.484;4.658;2023-02-28T00:26:52;7.10;;;2.80;;
61638;SDS011;47544;52.484;4.658;2023-02-28T00:27:03;6.85;;;2.90;;
61638;SDS011;47544;52.484;4.658;2023-02-28T00:27:15;7.43;;;2.72;;
61638;SDS011;47544;52.484;4.658;2023-02-28T00:27:26;7.45;;;2.58;;
61638;SDS011;47544;52.484;4.658;2023-02-28T00:27:37;6.95;;;2.30;;
61638;SDS011;47544;52.484;4.658;2023-02-28T00:27:48;7.78;;;2.58;;
61638;SDS011;47544;52.484;4.658;2023-02-28T00:28:01;8.82;;;3.08;;
61638;SDS011;47544;52.484;4.658;2023-02-28T00:28:12;9.23;;;3.40;;
61638;SDS011;47544;52.484;4.658;2023-02-28T00:28:23;9.40;;;3.42;;
61638;SDS011;47544;52.484;4.658;2023-02-28T00:28:34;8.90;;;3.30;;
61638;SDS011;47544;52.484;4.658;2023-02-28T00:28:46;6.82;;;3.10;;
61638;SDS011;47544;52.484;4.658;2023-02-28T00:28:57;6.65;;;2.90;;
61638;SDS011;47544;52.484;4.658;2023-02-28T00:29:09;7.43;;;2.70;;
61638;SDS011;47544;52.484;4.658;2023-02-28T00:29:20;8.50;;;2.70;;
61638;SDS011;47544;52.484;4.658;2023-02-28T00:29:31;8.50;;;3.10;;
61638;SDS011;47544;52.484;4.658;2023-02-28T00:29:42;8.20;;;3.07;;
61638;SDS011;47544;52.484;4.658;2023-02-28T00:29:53;7.65;;;3.08;;
61638;SDS011;47544;52.484;4.658;2023-02-28T00:30:05;8.30;;;3.00;;
61638;SDS011;47544;52.484;4.658;2023-02-28T00:30:18;7.43;;;3.10;;
61638;SDS011;47544;52.484;4.658;2023-02-28T00:30:29;6.82;;;3.03;;
61638;SDS011;47544;52.484;4.658;2023-02-28T00:30:40;7.05;;;2.95;;
61638;SDS011;47544;52.484;4.658;2023-02-28T00:30:51;7.35;;;3.00;;
61638;SDS011;47544;52.484;4.658;2023-02-28T00:31:02;6.72;;;2.80;;
61638;SDS011;47544;52.484;4.658;2023-02-28T00:31:13;8.05;;;2.80;;
61638;SDS011;47544;52.484;4.658;2023-02-28T00:31:24;8.30;;;2.80;;
61638;SDS011;47544;52.484;4.658;2023-02-28T00:31:36;8.20;;;3.20;;
61638;SDS011;47544;52.484;4.658;2023-02-28T00:31:47;7.27;;;3.23;;
61638;SDS011;47544;52.484;4.658;2023-02-28T00:31:58;7.43;;;3.20;;
61638;SDS011;47544;52.484;4.658;2023-02-28T00:32:09;7.93;;;3.05;;
61638;SDS011;47544;52.484;4.658;2023-02-28T00:32:19;10.00;;;3.20;;
61638;SDS011;47544;52.484;4.658;2023-02-28T00:32:30;10.05;;;3.15;;
61638;SDS011;47544;52.484;4.658;2023-02-28T00:32:41;10.95;;;3.20;;
61638;SDS011;47544;52.484;4.658;2023-02-28T00:32:52;9.25;;;3.05;;
61638;SDS011;47544;52.484;4.658;2023-02-28T00:33:03;10.10;;;3.40;;
61638;SDS011;47544;52.484;4.658;2023-02-28T00:33:15;10.77;;;3.40;;
61638;SDS011;47544;52.484;4.658;2023-02-28T00:33:26;10.07;;;3.38;;
61638;SDS011;47544;52.484;4.658;2023-02-28T00:33:37;8.93;;;3.40;;
61638;SDS011;47544;52.484;4.658;2023-02-28T00:33:48;7.03;;;3.50;;
61638;SDS011;47544;52.484;4.658;2023-02-28T00:33:59;7.97;;;3.58;;
61638;SDS011;47544;52.484;4.658;2023-02-28T00:34:10;9.15;;;3.20;;
61638;SDS011;47544;52.484;4.658;2023-02-28T00:34:21;9.30;;;2.95;;
61638;SDS011;47544;52.484;4.658;2023-02-28T00:34:33;10.20;;;3.22;;
61638;SDS011;47544;52.484;4.658;2023-02-28T00:34:48;8.82;;;3.25;;
61638;SDS011;47544;52.484;4.658;2023-02-28T00:34:59;8.38;;;3.17;;
61638;SDS011;47544;52.484;4.658;2023-02-28T00:35:10;7.90;;;3.17;;
61638;SDS011;47544;52.484;4.658;2023-02-28T00:35:21;7.95;;;3.20;;
61638;SDS011;47544;52.484;4.658;2023-02-28T00:35:32;8.02;;;3.13;;
61638;SDS011;47544;52.484;4.658;2023-02-28T00:35:43;7.80;;;3.00;;
61638;SDS011;47544;52.484;4.658;2023-02-28T00:36:03;6.78;;;3.00;;
61638;SDS011;47544;52.484;4.658;2023-02-28T00:36:15;7.25;;;3.00;;
61638;SDS011;47544;52.484;4.658;2023-02-28T00:36:26;7.93;;;3.00;;
61638;SDS011;47544;52.484;4.658;2023-02-28T00:36:36;7.47;;;3.03;;
61638;SDS011;47544;52.484;4.658;2023-02-28T00:36:48;7.47;;;3.08;;
61638;SDS011;47544;52.484;4.658;2023-02-28T00:36:59;6.60;;;2.90;;
61638;SDS011;47544;52.484;4.658;2023-02-28T00:37:10;7.97;;;3.28;;
61638;SDS011;47544;52.484;4.658;2023-02-28T00:37:22;7.88;;;3.38;;
61638;SDS011;47544;52.484;4.658;2023-02-28T00:37:33;8.18;;;3.38;;
61638;SDS011;47544;52.484;4.658;2023-02-28T00:37:45;8.02;;;3.17;;
61638;SDS011;47544;52.484;4.658;2023-02-28T00:37:56;7.55;;;3.15;;
61638;SDS011;47544;52.484;4.658;2023-02-28T00:38:07;6.70;;;3.20;;
61638;SDS011;47544;52.484;4.658;2023-02-28T00:38:18;7.15;;;3.10;;
61638;SDS011;47544;52.484;4.658;2023-02-28T00:38:31;10.02;;;3.13;;
61638;SDS011;47544;52.484;4.658;2023-02-28T00:38:42;10.85;;;3.20;;
61638;SDS011;47544;52.484;4.658;2023-02-28T00:38:53;9.68;;;3.10;;
61638;SDS011;47544;52.484;4.658;2023-02-28T00:39:04;8.52;;;3.15;;
61638;SDS011;47544;52.484;4.658;2023-02-28T00:39:15;8.13;;;3.17;;
61638;SDS011;47544;52.484;4.658;2023-02-28T00:39:27;7.40;;;2.92;;
61638;SDS011;47544;52.484;4.658;2023-02-28T00:39:38;8.02;;;2.78;;
61638;SDS011;47544;52.484;4.658;2023-02-28T00:39:49;8.65;;;2.95;;
61638;SDS011;47544;52.484;4.658;2023-02-28T00:40:00;8.85;;;3.10;;
61638;SDS011;47544;52.484;4.658;2023-02-28T00:40:11;9.90;;;3.40;;
61638;SDS011;47544;52.484;4.658;2023-02-28T00:40:22;8.48;;;3.30;;
61638;SDS011;47544;52.484;4.658;2023-02-28T00:40:33;8.00;;;3.35;;
61638;SDS011;47544;52.484;4.658;2023-02-28T00:40:44;7.15;;;3.10;;
61638;SDS011;47544;52.484;4.658;2023-02-28T00:40:56;7.13;;;2.90;;
61638;SDS011;47544;52.484;4.658;2023-02-28T00:41:07;7.38;;;3.03;;
61638;SDS011;47544;52.484;4.658;2023-02-28T00:41:18;6.93;;;2.75;;
61638;SDS011;47544;52.484;4.658;2023-02-28T00:41:29;7.75;;;2.63;;
61638;SDS011;47544;52.484;4.658;2023-02-28T00:41:40;8.07;;;2.75;;
61638;SDS011;47544;52.484;4.658;2023-02-28T00:41:51;9.17;;;2.90;;
61638;SDS011;47544;52.484;4.658;2023-02-28T00:42:02;8.93;;;2.90;;
61638;SDS011;47544;52.484;4.658;2023-02-28T00:42:14;8.43;;;2.80;;
61638;SDS011;47544;52.484;4.658;2023-02-28T00:42:25;8.77;;;2.75;;
61638;SDS011;47544;52.484;4.658;2023-02-28T00:42:36;8.27;;;2.70;;
61638;SDS011;47544;52.484;4.658;2023-02-28T00:42:47;6.80;;;2.63;;
61638;SDS011;47544;52.484;4.658;2023-02-28T00:42:58;7.95;;;2.70;;
61638;SDS011;47544;52.484;4.658;2023-02-28T00:43:09;7.53;;;2.70;;
61638;SDS011;47544;52.484;4.658;2023-02-28T00:43:20;8.25;;;2.60;;
61638;SDS011;47544;52.484;4.658;2023-02-28T00:43:32;8.15;;;2.78;;
61638;SDS011;47544;52.484;4.658;2023-02-28T00:43:43;9.15;;;2.90;;
61638;SDS011;47544;52.484;4.658;2023-02-28T00:43:54;8.38;;;2.90;;
61638;SDS011;47544;52.484;4.658;2023-02-28T00:44:05;8.68;;;2.97;;
61638;SDS011;47544;52.484;4.658;2023-02-28T00:44:17;9.30;;;3.15;;
61638;SDS011;47544;52.484;4.658;2023-02-28T00:44:28;9.77;;;3.20;;
61638;SDS011;47544;52.484;4.658;2023-02-28T00:44:39;8.80;;;2.90;;
61638;SDS011;47544;52.484;4.658;2023-02-28T00:44:51;7.97;;;2.97;;
61638;SDS011;47544;52.484;4.658;2023-02-28T00:45:02;7.80;;;3.08;;
61638;SDS011;47544;52.484;4.658;2023-02-28T00:45:14;6.72;;;2.80;;
61638;SDS011;47544;52.484;4.658;2023-02-28T00:45:25;6.22;;;2.65;;
61638;SDS011;47544;52.484;4.658;2023-02-28T00:45:36;6.27;;;2.83;;
61638;SDS011;47544;52.484;4.658;2023-02-28T00:45:47;6.85;;;2.85;;
61638;SDS011;47544;52.484;4.658;2023-02-28T00:45:58;8.60;;;2.92;;
61638;SDS011;47544;52.484;4.658;2023-02-28T00:46:09;8.90;;;2.80;;
61638;SDS011;47544;52.484;4.658;2023-02-28T00:46:21;8.02;;;3.00;;
61638;SDS011;47544;52.484;4.658;2023-02-28T00:46:32;9.63;;;3.25;;
61638;SDS011;47544;52.484;4.658;2023-02-28T00:46:42;9.82;;;3.17;;
61638;SDS011;47544;52.484;4.658;2023-02-28T00:46:53;10.43;;;3.15;;
61638;SDS011;47544;52.484;4.658;2023-02-28T00:47:04;9.52;;;3.17;;
61638;SDS011;47544;52.484;4.658;2023-02-28T00:47:15;10.20;;;3.40;;
61638;SDS011;47544;52.484;4.658;2023-02-28T00:47:26;9.75;;;3.33;;
61638;SDS011;47544;52.484;4.658;2023-02-28T00:47:37;9.38;;;3.28;;
61638;SDS011;47544;52.484;4.658;2023-02-28T00:47:49;9.00;;;3.20;;
61638;SDS011;47544;52.484;4.658;2023-02-28T00:48:00;8.73;;;3.20;;
61638;SDS011;47544;52.484;4.658;2023-02-28T00:48:11;9.07;;;3.15;;
61638;SDS011;47544;52.484;4.658;2023-02-28T00:48:22;10.52;;;3.33;;
61638;SDS011;47544;52.484;4.658;2023-02-28T00:48:33;10.63;;;3.30;;
61638;SDS011;47544;52.484;4.658;2023-02-28T00:48:44;9.85;;;3.38;;
61638;SDS011;47544;52.484;4.658;2023-02-28T00:48:55;10.13;;;3.47;;
61638;SDS011;47544;52.484;4.658;2023-02-28T00:49:07;9.95;;;3.40;;
61638;SDS011;47544;52.484;4.658;2023-02-28T00:49:18;10.45;;;3.38;;
61638;SDS011;47544;52.484;4.658;2023-02-28T00:49:29;9.32;;;3.22;;
61638;SDS011;47544;52.484;4.658;2023-02-28T00:49:40;7.90;;;3.30;;
61638;SDS011;47544;52.484;4.658;2023-02-28T00:49:51;7.97;;;3.10;;
61638;SDS011;47544;52.484;4.658;2023-02-28T00:50:02;9.02;;;3.13;;
61638;SDS011;47544;52.484;4.658;2023-02-28T00:50:13;9.13;;;3.00;;
61638;SDS011;47544;52.484;4.658;2023-02-28T00:50:24;7.63;;;2.90;;
61638;SDS011;47544;52.484;4.658;2023-02-28T00:50:36;7.20;;;2.80;;
61638;SDS011;47544;52.484;4.658;2023-02-28T00:50:48;8.43;;;2.88;;
61638;SDS011;47544;52.484;4.658;2023-02-28T00:50:59;8.38;;;2.85;;
61638;SDS011;47544;52.484;4.658;2023-02-28T00:51:10;7.32;;;2.83;;
61638;SDS011;47544;52.484;4.658;2023-02-28T00:51:21;7.15;;;2.95;;
61638;SDS011;47544;52.484;4.658;2023-02-28T00:51:32;7.82;;;2.83;;
61638;SDS011;47544;52.484;4.658;2023-02-28T00:51:43;8.13;;;2.90;;
61638;SDS011;47544;52.484;4.658;2023-02-28T00:51:55;7.75;;;3.00;;
61638;SDS011;47544;52.484;4.658;2023-02-28T00:52:06;7.05;;;2.95;;
61638;SDS011;47544;52.484;4.658;2023-02-28T00:52:17;6.63;;;2.97;;
61638;SDS011;47544;52.484;4.658;2023-02-28T00:52:28;6.38;;;2.92;;
61638;SDS011;47544;52.484;4.658;2023-02-28T00:52:39;9.43;;;3.20;;
61638;SDS011;47544;52.484;4.658;2023-02-28T00:52:50;9.30;;;3.17;;
61638;SDS011;47544;52.484;4.658;2023-02-28T00:53:02;7.95;;;2.95;;
61638;SDS011;47544;52.484;4.658;2023-02-28T00:53:13;7.22;;;2.80;;
61638;SDS011;47544;52.484;4.658;2023-02-28T00:53:24;7.73;;;2.70;;
61638;SDS011;47544;52.484;4.658;2023-02-28T00:53:35;8.52;;;2.80;;
61638;SDS011;47544;52.484;4.658;2023-02-28T00:53:45;9.13;;;2.80;;
61638;SDS011;47544;52.484;4.658;2023-02-28T00:53:56;8.18;;;2.75;;
61638;SDS011;47544;52.484;4.658;2023-02-28T00:54:07;7.40;;;2.67;;
61638;SDS011;47544;52.484;4.658;2023-02-28T00:54:19;6.70;;;2.67;;
61638;SDS011;47544;52.484;4.658;2023-02-28T00:54:30;7.57;;;2.88;;
61638;SDS011;47544;52.484;4.658;2023-02-28T00:54:41;8.65;;;2.92;;
61638;SDS011;47544;52.484;4.658;2023-02-28T00:54:52;8.88;;;3.10;;
61638;SDS011;47544;52.484;4.658;2023-02-28T00:55:03;9.18;;;3.20;;
61638;SDS011;47544;52.484;4.658;2023-02-28T00:55:14;8.75;;;3.28;;
61638;SDS011;47544;52.484;4.658;2023-02-28T00:55:25;8.90;;;3.08;;
61638;SDS011;47544;52.484;4.658;2023-02-28T00:55:36;8.00;;;3.10;;
61638;SDS011;47544;52.484;4.658;2023-02-28T00:55:48;7.88;;;3.10;;
61638;SDS011;47544;52.484;4.658;2023-02-28T00:55:59;7.57;;;2.97;;
61638;SDS011;47544;52.484;4.658;2023-02-28T00:56:11;7.38;;;2.80;;
61638;SDS011;47544;52.484;4.658;2023-02-28T00:56:22;6.90;;;2.70;;
61638;SDS011;47544;52.484;4.658;2023-02-28T00:56:32;8.40;;;2.85;;
61638;SDS011;47544;52.484;4.658;2023-02-28T00:56:43;8.87;;;2.80;;
61638;SDS011;47544;52.484;4.658;2023-02-28T00:56:56;9.50;;;3.00;;
61638;SDS011;47544;52.484;4.658;2023-02-28T00:57:07;9.82;;;2.90;;
61638;SDS011;47544;52.484;4.658;2023-02-28T00:57:18;10.18;;;3.10;;
61638;SDS011;47544;52.484;4.658;2023-02-28T00:57:30;9.05;;;3.15;;
61638;SDS011;47544;52.484;4.658;2023-02-28T00:57:41;8.18;;;3.20;;
61638;SDS011;47544;52.484;4.658;2023-02-28T00:57:52;7.72;;;3.03;;
61638;SDS011;47544;52.484;4.658;2023-02-28T00:58:03;8.57;;;2.90;;
61638;SDS011;47544;52.484;4.658;2023-02-28T00:58:14;9.20;;;2.90;;
61638;SDS011;47544;52.484;4.658;2023-02-28T00:58:25;11.10;;;3.20;;
61638;SDS011;47544;52.484;4.658;2023-02-28T00:58:36;9.68;;;3.20;;
61638;SDS011;47544;52.484;4.658;2023-02-28T00:58:47;9.98;;;3.22;;
61638;SDS011;47544;52.484;4.658;2023-02-28T00:58:58;9.15;;;3.28;;
61638;SDS011;47544;52.484;4.658;2023-02-28T00:59:09;8.83;;;3.23;;
61638;SDS011;47544;52.484;4.658;2023-02-28T00:59:23;8.65;;;3.10;;
61638;SDS011;47544;52.484;4.658;2023-02-28T00:59:34;8.20;;;3.10;;
61638;SDS011;47544;52.484;4.658;2023-02-28T00:59:45;8.95;;;3.00;;
61638;SDS011;47544;52.484;4.658;2023-02-28T00:59:56;9.27;;;3.20;;
61638;SDS011;47544;52.484;4.658;2023-02-28T01:00:07;9.75;;;3.38;;
61638;SDS011;47544;52.484;4.658;2023-02-28T01:00:21;10.02;;;3.40;;
61638;SDS011;47544;52.484;4.658;2023-02-28T01:00:32;8.95;;;3.10;;
61638;SDS011;47544;52.484;4.658;2023-02-28T01:00:43;7.80;;;2.90;;
61638;SDS011;47544;52.484;4.658;2023-02-28T01:00:54;7.53;;;2.90;;
61638;SDS011;47544;52.484;4.658;2023-02-28T01:01:04;8.20;;;2.90;;
61638;SDS011;47544;52.484;4.658;2023-02-28T01:01:15;8.73;;;3.05;;
61638;SDS011;47544;52.484;4.658;2023-02-28T01:01:26;8.38;;;3.00;;
61638;SDS011;47544;52.484;4.658;2023-02-28T01:01:38;9.10;;;3.17;;
61638;SDS011;47544;52.484;4.658;2023-02-28T01:01:50;9.88;;;3.20;;
61638;SDS011;47544;52.484;4.658;2023-02-28T01:02:01;11.18;;;3.45;;
61638;SDS011;47544;52.484;4.658;2023-02-28T01:02:11;11.15;;;3.50;;
61638;SDS011;47544;52.484;4.658;2023-02-28T01:02:22;9.38;;;3.33;;
61638;SDS011;47544;52.484;4.658;2023-02-28T01:02:33;7.35;;;3.03;;
61638;SDS011;47544;52.484;4.658;2023-02-28T01:02:44;8.27;;;3.05;;
61638;SDS011;47544;52.484;4.658;2023-02-28T01:02:56;7.90;;;2.90;;
61638;SDS011;47544;52.484;4.658;2023-02-28T01:03:07;8.98;;;2.85;;
61638;SDS011;47544;52.484;4.658;2023-02-28T01:03:18;7.47;;;2.83;;
61638;SDS011;47544;52.484;4.658;2023-02-28T01:03:30;7.97;;;3.10;;
61638;SDS011;47544;52.484;4.658;2023-02-28T01:03:40;6.95;;;3.10;;
61638;SDS011;47544;52.484;4.658;2023-02-28T01:03:52;7.90;;;3.10;;
61638;SDS011;47544;52.484;4.658;2023-02-28T01:04:03;8.30;;;3.17;;
61638;SDS011;47544;52.484;4.658;2023-02-28T01:04:16;7.88;;;3.17;;
61638;SDS011;47544;52.484;4.658;2023-02-28T01:04:27;7.30;;;3.10;;
61638;SDS011;47544;52.484;4.658;2023-02-28T01:04:38;7.50;;;3.15;;
61638;SDS011;47544;52.484;4.658;2023-02-28T01:04:48;7.35;;;2.92;;
61638;SDS011;47544;52.484;4.658;2023-02-28T01:04:59;6.97;;;3.05;;
61638;SDS011;47544;52.484;4.658;2023-02-28T01:05:10;8.00;;;3.28;;
61638;SDS011;47544;52.484;4.658;2023-02-28T01:05:21;8.15;;;3.30;;
61638;SDS011;47544;52.484;4.658;2023-02-28T01:05:33;8.02;;;3.08;;
61638;SDS011;47544;52.484;4.658;2023-02-28T01:05:44;8.18;;;2.92;;
61638;SDS011;47544;52.484;4.658;2023-02-28T01:05:55;7.25;;;2.85;;
61638;SDS011;47544;52.484;4.658;2023-02-28T01:06:06;8.90;;;2.92;;
61638;SDS011;47544;52.484;4.658;2023-02-28T01:06:17;10.13;;;3.10;;
61638;SDS011;47544;52.484;4.658;2023-02-28T01:06:28;10.40;;;3.40;;
61638;SDS011;47544;52.484;4.658;2023-02-28T01:06:39;9.05;;;3.42;;
61638;SDS011;47544;52.484;4.658;2023-02-28T01:06:50;7.80;;;3.20;;
61638;SDS011;47544;52.484;4.658;2023-02-28T01:07:01;7.20;;;2.95;;
61638;SDS011;47544;52.484;4.658;2023-02-28T01:07:12;7.68;;;3.05;;
61638;SDS011;47544;52.484;4.658;2023-02-28T01:07:25;8.48;;;3.47;;
61638;SDS011;47544;52.484;4.658;2023-02-28T01:07:38;8.70;;;3.55;;
61638;SDS011;47544;52.484;4.658;2023-02-28T01:07:49;8.02;;;3.40;;
61638;SDS011;47544;52.484;4.658;2023-02-28T01:08:00;8.93;;;3.40;;
61638;SDS011;47544;52.484;4.658;2023-02-28T01:08:11;9.68;;;3.28;;
61638;SDS011;47544;52.484;4.658;2023-02-28T01:08:22;8.73;;;3.13;;